Time;durP1;ratioP1;P1;durP2;ratioP2;P2;SDS_P1;SDS_P2;PMS_P1;PMS_P2;Temp;Humidity;BMP_temperature;BMP_pressure;BME280_temperature;BME280_humidity;BME280_pressure;Samples;Min_cycle;Max_cycle;Signal;HPM_P1;HPM_P2
2021/09/04 00:01:41;;;;;;;;;;;20.80;73.20;;;;;;4964769;28;1961;-73
2021/09/04 00:04:06;;;;;;;;;;;20.80;72.60;;;;;;4964755;28;1245;-73
2021/09/04 00:06:32;;;;;;;;;;;20.80;72.50;;;;;;4995083;28;1059;-74
2021/09/04 00:08:57;;;;;;;;;;;20.80;72.50;;;;;;4958686;28;1265;-74
2021/09/04 00:11:22;;;;;;;;;;;20.80;73.20;;;;;;4975020;28;1284;-73
2021/09/04 00:13:48;;;;;;;;;;;20.80;72.60;;;;;;4994468;28;1205;-74
2021/09/04 00:16:13;;;;;;;;;;;20.80;72.60;;;;;;4982442;28;1101;-74
2021/09/04 00:18:39;;;;;;;;;;;20.80;72.50;;;;;;4977161;28;1157;-74
2021/09/04 00:21:04;;;;;;;;;;;20.80;72.50;;;;;;4985876;28;1894;-74
2021/09/04 00:23:30;;;;;;;;;;;20.80;72.50;;;;;;4984910;28;1331;-74
2021/09/04 00:25:55;;;;;;;;;;;20.80;73.30;;;;;;4985404;28;1237;-74
2021/09/04 00:28:20;;;;;;;;;;;20.80;72.60;;;;;;4995792;28;1391;-74
2021/09/04 00:30:46;;;;;;;;;;;20.80;72.60;;;;;;4994832;28;1079;-74
2021/09/04 00:33:11;;;;;;;;;;;20.80;72.50;;;;;;4977079;28;1307;-74
2021/09/04 00:35:37;;;;;;;;;;;20.80;72.50;;;;;;4994579;28;1061;-74
2021/09/04 00:38:02;;;;;;;;;;;20.80;72.60;;;;;;4994457;28;1386;-74
2021/09/04 00:40:28;;;;;;;;;;;20.80;72.50;;;;;;4994303;28;1398;-74
2021/09/04 00:42:53;;;;;;;;;;;20.80;72.60;;;;;;4994445;28;1923;-74
2021/09/04 00:45:19;;;;;;;;;;;20.80;72.70;;;;;;4976765;28;1340;-74
2021/09/04 00:47:57;;;;;;;;;;;20.80;72.50;;;;;;4977070;28;1141;-74
2021/09/04 00:50:23;;;;;;;;;;;20.80;72.60;;;;;;4994322;28;1273;-76
2021/09/04 00:52:48;;;;;;;;;;;20.80;72.50;;;;;;4994319;28;1282;-75
2021/09/04 00:55:13;;;;;;;;;;;20.80;72.60;;;;;;4999552;28;1350;-76
2021/09/04 00:57:39;;;;;;;;;;;20.80;72.60;;;;;;4994393;28;1504;-75
2021/09/04 01:00:04;;;;;;;;;;;20.80;72.60;;;;;;4976900;28;1297;-76
2021/09/04 01:02:30;;;;;;;;;;;20.80;72.60;;;;;;4993781;28;1902;-75
2021/09/04 01:04:55;;;;;;;;;;;20.80;72.60;;;;;;4993443;28;1269;-74
2021/09/04 01:07:21;;;;;;;;;;;20.80;72.60;;;;;;4976196;28;1260;-75
2021/09/04 01:09:46;;;;;;;;;;;20.80;72.60;;;;;;4980818;28;1124;-75
2021/09/04 01:12:13;;;;;;;;;;;20.80;72.60;;;;;;4993589;28;1310;-75
2021/09/04 01:14:39;;;;;;;;;;;20.80;72.60;;;;;;4963222;28;1258;-75
2021/09/04 01:17:05;;;;;;;;;;;20.80;72.70;;;;;;4974147;28;1347;-75
2021/09/04 01:19:31;;;;;;;;;;;20.80;72.60;;;;;;4986806;28;1058;-75
2021/09/04 01:21:56;;;;;;;;;;;20.80;72.60;;;;;;4969136;28;1965;-74
2021/09/04 01:24:22;;;;;;;;;;;20.80;72.60;;;;;;4956292;28;1383;-75
2021/09/04 01:26:47;;;;;;;;;;;20.80;72.60;;;;;;5003983;28;1502;-75
2021/09/04 01:29:13;;;;;;;;;;;20.80;73.40;;;;;;4993452;28;1281;-75
2021/09/04 01:31:39;;;;;;;;;;;20.80;72.60;;;;;;4993335;28;1379;-75
2021/09/04 01:34:04;;;;;;;;;;;20.80;72.60;;;;;;4993012;28;1295;-74
2021/09/04 01:36:33;;;;;;;;;;;20.80;72.70;;;;;;4993090;28;1327;-75
2021/09/04 01:38:59;;;;;;;;;;;20.80;72.70;;;;;;4975697;28;1371;-75
2021/09/04 01:41:24;;;;;;;;;;;20.80;72.60;;;;;;4975696;28;1991;-75
2021/09/04 01:43:50;;;;;;;;;;;20.80;72.60;;;;;;4975717;28;1390;-75
2021/09/04 01:46:16;;;;;;;;;;;20.80;72.70;;;;;;4987206;28;1356;-75
2021/09/04 01:48:41;;;;;;;;;;;20.80;72.70;;;;;;4984519;28;1246;-76
2021/09/04 01:51:06;;;;;;;;;;;20.80;72.70;;;;;;4984236;28;1318;-75
2021/09/04 01:53:32;;;;;;;;;;;20.80;72.60;;;;;;4965267;28;1300;-75
2021/09/04 01:55:57;;;;;;;;;;;20.70;72.60;;;;;;4989226;28;1160;-75
2021/09/04 01:58:23;;;;;;;;;;;20.80;72.70;;;;;;4967396;28;1245;-76
2021/09/04 02:00:48;;;;;;;;;;;20.80;72.70;;;;;;4974892;28;1346;-75
2021/09/04 02:03:13;;;;;;;;;;;20.80;72.70;;;;;;4984316;28;1962;-75
2021/09/04 02:05:39;;;;;;;;;;;20.80;72.70;;;;;;4982420;28;1289;-75
2021/09/04 02:08:05;;;;;;;;;;;20.80;72.70;;;;;;4949439;28;1324;-75
2021/09/04 02:10:30;;;;;;;;;;;20.70;72.60;;;;;;4988375;28;1152;-75
2021/09/04 02:12:55;;;;;;;;;;;20.70;72.70;;;;;;4992283;28;1609;-76
2021/09/04 02:15:21;;;;;;;;;;;20.80;72.70;;;;;;4992084;28;1638;-76
2021/09/04 02:17:46;;;;;;;;;;;20.80;72.70;;;;;;4993354;28;1076;-75
2021/09/04 02:20:12;;;;;;;;;;;20.70;72.70;;;;;;4988098;28;1561;-75
2021/09/04 02:22:37;;;;;;;;;;;20.80;72.70;;;;;;4973732;28;1960;-76
2021/09/04 02:25:04;;;;;;;;;;;20.80;72.70;;;;;;4996071;28;1076;-74
2021/09/04 02:27:29;;;;;;;;;;;20.80;72.70;;;;;;5001153;28;1088;-73
2021/09/04 02:29:55;;;;;;;;;;;20.80;72.70;;;;;;4979926;28;1175;-75
2021/09/04 02:32:20;;;;;;;;;;;20.80;72.70;;;;;;4976062;28;1052;-73
2021/09/04 02:34:45;;;;;;;;;;;20.80;72.70;;;;;;4992021;28;1310;-72
2021/09/04 02:37:11;;;;;;;;;;;20.70;72.60;;;;;;4977424;28;799;-73
2021/09/04 02:39:36;;;;;;;;;;;20.80;72.70;;;;;;4995197;28;1132;-73
2021/09/04 02:42:02;;;;;;;;;;;20.70;72.60;;;;;;4985949;28;1969;-74
2021/09/04 02:44:27;;;;;;;;;;;20.70;72.60;;;;;;4977447;28;1205;-75
2021/09/04 02:46:53;;;;;;;;;;;20.70;72.70;;;;;;4960172;28;803;-75
2021/09/04 02:49:18;;;;;;;;;;;20.80;72.80;;;;;;4999440;28;1168;-75
2021/09/04 02:51:43;;;;;;;;;;;20.70;72.70;;;;;;4987597;28;1323;-76
2021/09/04 02:54:10;;;;;;;;;;;20.70;72.70;;;;;;4979061;28;1253;-74
2021/09/04 02:56:35;;;;;;;;;;;20.80;72.80;;;;;;4985128;28;1243;-75
2021/09/04 02:59:01;;;;;;;;;;;20.70;72.70;;;;;;4979396;28;949;-74
2021/09/04 03:01:26;;;;;;;;;;;20.80;72.80;;;;;;4979189;28;1898;-76
2021/09/04 03:03:51;;;;;;;;;;;20.70;72.70;;;;;;4996639;28;1319;-75
2021/09/04 03:06:17;;;;;;;;;;;20.70;72.70;;;;;;4979126;28;933;-73
2021/09/04 03:08:42;;;;;;;;;;;20.80;72.80;;;;;;4992761;28;1100;-74
2021/09/04 03:11:08;;;;;;;;;;;20.70;72.70;;;;;;4987361;28;817;-73
2021/09/04 03:13:33;;;;;;;;;;;20.70;72.70;;;;;;4983054;28;1380;-72
2021/09/04 03:15:58;;;;;;;;;;;20.70;72.70;;;;;;4968822;28;1085;-72
2021/09/04 03:18:24;;;;;;;;;;;20.80;72.80;;;;;;4990123;28;962;-72
2021/09/04 03:20:49;;;;;;;;;;;20.80;72.80;;;;;;4986277;28;1132;-72
2021/09/04 03:23:15;;;;;;;;;;;20.70;72.70;;;;;;4982416;28;1923;-73
2021/09/04 03:25:40;;;;;;;;;;;20.70;72.70;;;;;;4986638;28;1147;-72
2021/09/04 03:28:08;;;;;;;;;;;20.70;72.80;;;;;;4989752;28;1211;-72
2021/09/04 03:30:33;;;;;;;;;;;20.70;72.80;;;;;;4986104;28;1125;-72
2021/09/04 03:32:58;;;;;;;;;;;20.70;72.80;;;;;;4982982;28;1285;-72
2021/09/04 03:35:24;;;;;;;;;;;20.70;72.80;;;;;;4969011;28;1145;-74
2021/09/04 03:37:49;;;;;;;;;;;20.70;73.50;;;;;;4977136;28;898;-75
2021/09/04 03:40:15;;;;;;;;;;;20.70;72.80;;;;;;4967751;28;1066;-76
2021/09/04 03:42:40;;;;;;;;;;;20.70;72.80;;;;;;4965158;28;1993;-76
2021/09/04 03:45:06;;;;;;;;;;;20.70;72.80;;;;;;4969029;28;1108;-77
2021/09/04 03:47:31;;;;;;;;;;;20.70;72.80;;;;;;4989587;28;1120;-76
2021/09/04 03:49:57;;;;;;;;;;;20.80;72.90;;;;;;4968724;28;1188;-76
2021/09/04 03:52:22;;;;;;;;;;;20.70;72.80;;;;;;4982249;28;1104;-76
2021/09/04 03:54:48;;;;;;;;;;;20.70;72.80;;;;;;4990251;28;1271;-76
2021/09/04 03:57:13;;;;;;;;;;;20.70;72.80;;;;;;4999034;28;1112;-76
2021/09/04 03:59:38;;;;;;;;;;;20.70;72.80;;;;;;4968592;28;1073;-76
2021/09/04 04:02:04;;;;;;;;;;;20.70;72.80;;;;;;4978812;28;1902;-76
2021/09/04 04:04:29;;;;;;;;;;;20.70;72.90;;;;;;4968469;28;1318;-76
2021/09/04 04:06:55;;;;;;;;;;;20.70;72.80;;;;;;4988756;28;1113;-76
2021/09/04 04:09:20;;;;;;;;;;;20.70;72.90;;;;;;4976003;28;706;-75
2021/09/04 04:11:46;;;;;;;;;;;20.70;72.80;;;;;;4989077;28;1144;-76
2021/09/04 04:14:11;;;;;;;;;;;20.70;72.80;;;;;;4984448;28;1314;-76
2021/09/04 04:16:37;;;;;;;;;;;20.70;72.80;;;;;;4982001;28;1124;-75
2021/09/04 04:19:02;;;;;;;;;;;20.70;72.80;;;;;;4986403;28;1080;-76
2021/09/04 04:21:27;;;;;;;;;;;20.70;72.90;;;;;;4988213;28;1955;-76
2021/09/04 04:23:53;;;;;;;;;;;20.70;72.90;;;;;;4966873;28;1204;-76
2021/09/04 04:26:18;;;;;;;;;;;20.70;72.90;;;;;;4988416;28;1152;-75
2021/09/04 04:28:44;;;;;;;;;;;20.70;72.90;;;;;;4986605;28;1187;-75
2021/09/04 04:31:09;;;;;;;;;;;20.70;72.90;;;;;;4988404;28;1042;-75
2021/09/04 04:33:35;;;;;;;;;;;20.70;72.90;;;;;;4983878;28;1295;-75
2021/09/04 04:36:00;;;;;;;;;;;20.70;72.90;;;;;;4995129;28;977;-75
2021/09/04 04:38:25;;;;;;;;;;;20.70;72.90;;;;;;4994903;28;1090;-76
2021/09/04 04:40:51;;;;;;;;;;;20.70;72.90;;;;;;4980240;28;1180;-74
2021/09/04 04:43:16;;;;;;;;;;;20.70;73.00;;;;;;4975169;28;1906;-76
2021/09/04 04:45:42;;;;;;;;;;;20.70;73.00;;;;;;4977047;28;1050;-76
2021/09/04 04:48:07;;;;;;;;;;;20.70;72.90;;;;;;4994810;28;1039;-74
2021/09/04 04:50:33;;;;;;;;;;;20.70;73.00;;;;;;4964062;28;1129;-74
2021/09/04 04:52:58;;;;;;;;;;;20.70;73.00;;;;;;4986612;28;1295;-75
2021/09/04 04:55:24;;;;;;;;;;;20.70;73.00;;;;;;4976512;28;1089;-74
2021/09/04 04:57:49;;;;;;;;;;;20.70;73.00;;;;;;4995054;28;956;-74
2021/09/04 05:00:15;;;;;;;;;;;20.70;73.00;;;;;;4994629;28;1080;-76
2021/09/04 05:02:40;;;;;;;;;;;20.70;73.00;;;;;;4994274;28;1887;-74
2021/09/04 05:05:06;;;;;;;;;;;20.70;73.00;;;;;;4976851;28;661;-74
2021/09/04 05:07:32;;;;;;;;;;;20.70;73.00;;;;;;4977022;28;838;-75
2021/09/04 05:09:57;;;;;;;;;;;20.70;73.00;;;;;;4981397;28;1152;-75
2021/09/04 05:12:22;;;;;;;;;;;20.70;73.00;;;;;;4986347;28;1069;-74
2021/09/04 05:14:48;;;;;;;;;;;20.70;73.00;;;;;;4987544;28;1210;-74
2021/09/04 05:17:13;;;;;;;;;;;20.70;73.00;;;;;;4982006;28;1073;-75
2021/09/04 05:19:39;;;;;;;;;;;20.70;73.00;;;;;;4993168;28;889;-73
2021/09/04 05:22:04;;;;;;;;;;;20.70;73.00;;;;;;4974578;28;1915;-73
2021/09/04 05:24:29;;;;;;;;;;;20.70;73.00;;;;;;4987128;28;1225;-73
2021/09/04 05:26:55;;;;;;;;;;;20.70;73.00;;;;;;5005612;28;1168;-74
2021/09/04 05:29:20;;;;;;;;;;;20.70;73.00;;;;;;4994408;28;866;-74
2021/09/04 05:31:46;;;;;;;;;;;20.70;73.00;;;;;;4986373;28;1068;-74
2021/09/04 05:34:11;;;;;;;;;;;20.70;73.00;;;;;;4986865;28;1354;-73
2021/09/04 05:36:37;;;;;;;;;;;20.70;73.00;;;;;;4979883;28;1681;-69
2021/09/04 05:39:02;;;;;;;;;;;20.70;73.00;;;;;;4983022;28;1908;-71
2021/09/04 05:41:27;;;;;;;;;;;20.70;72.90;;;;;;4975996;28;1914;-70
2021/09/04 05:43:53;;;;;;;;;;;20.70;72.90;;;;;;4975537;28;1307;-70
2021/09/04 05:46:18;;;;;;;;;;;20.80;72.90;;;;;;4975923;28;1267;-70
2021/09/04 05:48:44;;;;;;;;;;;20.70;72.80;;;;;;4993283;28;1274;-69
2021/09/04 05:51:09;;;;;;;;;;;20.80;72.90;;;;;;4993728;28;1281;-70
2021/09/04 05:53:35;;;;;;;;;;;20.80;72.80;;;;;;4993246;28;1357;-69
2021/09/04 05:56:00;;;;;;;;;;;20.80;72.80;;;;;;4998815;28;1132;-72
2021/09/04 05:58:25;;;;;;;;;;;20.80;72.70;;;;;;4976097;28;1055;-72
2021/09/04 06:00:51;;;;;;;;;;;20.80;72.30;;;;;;4975398;28;1428;-73
2021/09/04 06:03:17;;;;;;;;;;;20.80;71.20;;;;;;4993569;28;1961;-72
2021/09/04 06:05:42;;;;;;;;;;;20.80;70.30;;;;;;4993146;28;1310;-72
2021/09/04 06:08:07;;;;;;;;;;;20.80;69.90;;;;;;4983662;28;1177;-73
2021/09/04 06:10:33;;;;;;;;;;;20.80;70.70;;;;;;4980361;28;1368;-72
2021/09/04 06:12:58;;;;;;;;;;;20.80;68.90;;;;;;4975041;28;1213;-73
2021/09/04 06:15:24;;;;;;;;;;;20.80;69.10;;;;;;4999478;28;1347;-73
2021/09/04 06:17:49;;;;;;;;;;;20.70;68.30;;;;;;4987693;28;1092;-73
2021/09/04 06:20:15;;;;;;;;;;;20.70;68.70;;;;;;4980345;28;1265;-73
2021/09/04 06:22:40;;;;;;;;;;;20.80;68.90;;;;;;4962754;28;1906;-73
2021/09/04 06:25:06;;;;;;;;;;;20.70;68.60;;;;;;5002667;28;1133;-73
2021/09/04 06:27:31;;;;;;;;;;;20.70;69.10;;;;;;5007527;28;1131;-72
2021/09/04 06:29:56;;;;;;;;;;;20.70;69.10;;;;;;4986818;28;1140;-73
2021/09/04 06:32:22;;;;;;;;;;;20.70;68.40;;;;;;4999908;28;1399;-74
2021/09/04 06:34:47;;;;;;;;;;;20.70;68.90;;;;;;4981636;28;1390;-73
2021/09/04 06:37:13;;;;;;;;;;;20.70;67.50;;;;;;4982122;28;1297;-72
2021/09/04 06:39:38;;;;;;;;;;;20.70;68.30;;;;;;4999486;28;1255;-72
2021/09/04 06:42:04;;;;;;;;;;;20.70;68.90;;;;;;4999472;28;1906;-75
2021/09/04 06:44:29;;;;;;;;;;;20.70;68.40;;;;;;4981170;28;1252;-76
2021/09/04 06:46:55;;;;;;;;;;;20.70;68.50;;;;;;4991426;28;1125;-76
2021/09/04 06:49:20;;;;;;;;;;;20.70;68.90;;;;;;4986855;28;1069;-76
2021/09/04 06:51:45;;;;;;;;;;;20.70;69.10;;;;;;4999671;28;1077;-76
2021/09/04 06:54:11;;;;;;;;;;;20.70;69.40;;;;;;4968836;28;1327;-76
2021/09/04 06:56:36;;;;;;;;;;;20.70;69.60;;;;;;4986785;28;1088;-76
2021/09/04 06:59:02;;;;;;;;;;;20.70;69.70;;;;;;4969133;28;1192;-76
2021/09/04 07:01:27;;;;;;;;;;;20.70;69.80;;;;;;4970244;28;1898;-76
2021/09/04 07:03:52;;;;;;;;;;;20.80;69.90;;;;;;4997505;28;1339;-76
2021/09/04 07:06:18;;;;;;;;;;;20.80;69.90;;;;;;4970567;28;1080;-76
2021/09/04 07:08:43;;;;;;;;;;;20.80;70.00;;;;;;4975280;28;1125;-76
2021/09/04 07:11:09;;;;;;;;;;;20.80;70.10;;;;;;4991400;28;1115;-74
2021/09/04 07:13:34;;;;;;;;;;;20.80;70.10;;;;;;4965447;28;1299;-75
2021/09/04 07:16:00;;;;;;;;;;;20.80;70.20;;;;;;4970256;28;1101;-75
2021/09/04 07:18:25;;;;;;;;;;;20.80;70.20;;;;;;4975405;28;1168;-75
2021/09/04 07:20:50;;;;;;;;;;;20.80;70.30;;;;;;4969307;28;1125;-76
2021/09/04 07:23:16;;;;;;;;;;;20.80;70.40;;;;;;4982612;28;1910;-76
2021/09/04 07:25:42;;;;;;;;;;;20.80;70.40;;;;;;4986457;28;1120;-75
2021/09/04 07:28:07;;;;;;;;;;;20.80;70.50;;;;;;4976162;28;1121;-75
2021/09/04 07:30:33;;;;;;;;;;;20.80;70.50;;;;;;4987330;28;1081;-75
2021/09/04 07:32:58;;;;;;;;;;;20.80;70.50;;;;;;4982669;28;1269;-76
2021/09/04 07:35:24;;;;;;;;;;;20.80;70.50;;;;;;4985232;28;1080;-75
2021/09/04 07:37:49;;;;;;;;;;;20.90;70.70;;;;;;4989586;28;1163;-75
2021/09/04 07:40:15;;;;;;;;;;;20.80;70.70;;;;;;4969865;28;1074;-75
2021/09/04 07:42:40;;;;;;;;;;;20.90;70.80;;;;;;4965277;28;1910;-75
2021/09/04 07:45:06;;;;;;;;;;;20.90;70.80;;;;;;4985005;28;1132;-75
2021/09/04 07:47:31;;;;;;;;;;;20.90;70.80;;;;;;4992630;28;1210;-76
2021/09/04 07:49:56;;;;;;;;;;;20.90;70.90;;;;;;4978101;28;1132;-75
2021/09/04 07:52:22;;;;;;;;;;;20.90;70.90;;;;;;4995797;28;1196;-76
2021/09/04 07:54:47;;;;;;;;;;;20.90;71.00;;;;;;4979999;28;1299;-76
2021/09/04 07:57:13;;;;;;;;;;;20.90;71.00;;;;;;4998813;28;1553;-77
2021/09/04 07:59:38;;;;;;;;;;;20.90;71.10;;;;;;4995596;28;1296;-77
2021/09/04 08:02:04;;;;;;;;;;;20.90;71.10;;;;;;4995468;28;1906;-74
2021/09/04 08:04:29;;;;;;;;;;;20.90;71.20;;;;;;4995382;28;1367;-75
2021/09/04 08:06:54;;;;;;;;;;;20.90;71.20;;;;;;4995233;28;1288;-75
2021/09/04 08:09:20;;;;;;;;;;;20.90;71.30;;;;;;4995347;28;1273;-76
2021/09/04 08:11:45;;;;;;;;;;;20.90;71.30;;;;;;4995261;28;1255;-75
2021/09/04 08:14:11;;;;;;;;;;;20.90;71.30;;;;;;4995374;28;1273;-77
2021/09/04 08:16:36;;;;;;;;;;;20.90;71.40;;;;;;4995977;28;1259;-76
2021/09/04 08:19:02;;;;;;;;;;;20.90;71.40;;;;;;4996794;28;1399;-76
2021/09/04 08:21:28;;;;;;;;;;;20.90;71.40;;;;;;4979139;28;1910;-77
2021/09/04 08:23:53;;;;;;;;;;;20.90;71.50;;;;;;4979619;28;1395;-76
2021/09/04 08:26:18;;;;;;;;;;;20.90;71.50;;;;;;5009222;28;1324;-76
2021/09/04 08:28:44;;;;;;;;;;;20.90;71.50;;;;;;4972336;28;1104;-76
2021/09/04 08:31:09;;;;;;;;;;;20.80;71.50;;;;;;4975484;28;1745;-76
2021/09/04 08:33:35;;;;;;;;;;;20.90;71.60;;;;;;4961825;28;1306;-75
2021/09/04 08:36:00;;;;;;;;;;;20.80;71.60;;;;;;4992538;28;1081;-75
2021/09/04 08:38:26;;;;;;;;;;;20.90;71.70;;;;;;4991495;28;946;-75
2021/09/04 08:40:51;;;;;;;;;;;20.90;71.70;;;;;;4994618;28;1076;-76
2021/09/04 08:43:17;;;;;;;;;;;20.80;71.60;;;;;;4976807;28;1965;-75
2021/09/04 08:45:42;;;;;;;;;;;20.90;71.70;;;;;;4961099;28;1250;-76
2021/09/04 08:48:08;;;;;;;;;;;20.90;71.70;;;;;;4994119;28;1219;-75
2021/09/04 08:50:35;;;;;;;;;;;20.90;71.70;;;;;;5007677;28;1171;-76
2021/09/04 08:53:01;;;;;;;;;;;20.90;71.80;;;;;;4968476;28;1253;-76
2021/09/04 08:55:26;;;;;;;;;;;20.80;71.80;;;;;;4995607;28;1140;-75
2021/09/04 08:57:52;;;;;;;;;;;20.80;71.80;;;;;;4976866;28;1092;-75
2021/09/04 09:00:30;;;;;;;;;;;20.80;71.80;;;;;;4975358;28;1397;-75
2021/09/04 09:02:55;;;;;;;;;;;20.80;71.80;;;;;;4986943;28;1952;-75
2021/09/04 09:05:21;;;;;;;;;;;20.80;71.80;;;;;;4960365;28;1161;-75
2021/09/04 09:07:47;;;;;;;;;;;20.80;71.90;;;;;;4984319;28;1088;-75
2021/09/04 09:10:21;;;;;;;;;;;20.80;71.90;;;;;;4992841;28;1105;-75
2021/09/04 09:12:46;;;;;;;;;;;20.80;71.80;;;;;;4981825;28;1348;-75
2021/09/04 09:15:18;;;;;;;;;;;20.90;71.90;;;;;;4987065;28;1113;-75
2021/09/04 09:17:44;;;;;;;;;;;20.80;71.90;;;;;;4957263;28;1373;-76
2021/09/04 09:20:10;;;;;;;;;;;20.80;72.00;;;;;;4962004;28;1352;-76
2021/09/04 09:22:44;;;;;;;;;;;20.80;72.00;;;;;;4982998;28;1907;-77
2021/09/04 09:25:16;;;;;;;;;;;20.80;72.00;;;;;;4985900;28;1081;-76
2021/09/04 09:28:00;;;;;;;;;;;20.80;72.10;;;;;;4967124;28;1221;-76
2021/09/04 09:30:36;;;;;;;;;;;20.80;72.10;;;;;;4967669;28;1254;-76
2021/09/04 09:33:01;;;;;;;;;;;20.80;72.10;;;;;;4985357;28;1423;-75
2021/09/04 09:35:30;;;;;;;;;;;20.80;72.10;;;;;;4949579;28;1210;-76
2021/09/04 09:37:56;;;;;;;;;;;20.80;72.10;;;;;;4964188;28;1222;-76
2021/09/04 09:40:22;;;;;;;;;;;20.80;72.10;;;;;;4982806;28;1205;-75
2021/09/04 09:42:48;;;;;;;;;;;20.80;72.10;;;;;;4964643;28;1902;-76
2021/09/04 09:45:13;;;;;;;;;;;20.80;72.20;;;;;;4983818;28;1205;-76
2021/09/04 09:47:48;;;;;;;;;;;20.80;72.20;;;;;;4967083;28;1304;-76
2021/09/04 09:50:14;;;;;;;;;;;20.80;72.20;;;;;;4976152;28;1125;-76
2021/09/04 09:52:39;;;;;;;;;;;20.80;72.20;;;;;;4987760;28;1275;-76
2021/09/04 09:55:05;;;;;;;;;;;20.80;72.20;;;;;;4972824;28;1098;-76
2021/09/04 09:57:31;;;;;;;;;;;20.80;72.30;;;;;;4977198;28;1116;-76
2021/09/04 09:59:57;;;;;;;;;;;20.80;72.30;;;;;;4976291;28;1349;-75
2021/09/04 10:02:22;;;;;;;;;;;20.80;72.30;;;;;;4976037;28;1906;-75
2021/09/04 10:04:48;;;;;;;;;;;20.80;72.30;;;;;;4976023;28;1334;-76
2021/09/04 10:07:13;;;;;;;;;;;20.80;72.40;;;;;;4975872;28;1002;-76
2021/09/04 10:09:40;;;;;;;;;;;20.80;72.30;;;;;;4981558;28;1076;-76
2021/09/04 10:12:06;;;;;;;;;;;20.80;72.40;;;;;;4969667;28;1106;-76
2021/09/04 10:14:32;;;;;;;;;;;20.80;72.40;;;;;;4968519;28;1202;-76
2021/09/04 10:16:58;;;;;;;;;;;20.80;72.40;;;;;;4957352;28;1160;-75
2021/09/04 10:19:27;;;;;;;;;;;20.80;72.40;;;;;;4974019;28;1328;-76
2021/09/04 10:21:53;;;;;;;;;;;20.80;72.40;;;;;;4969031;28;1958;-76
2021/09/04 10:24:18;;;;;;;;;;;20.80;72.40;;;;;;4956223;28;1192;-76
2021/09/04 10:26:44;;;;;;;;;;;20.80;72.50;;;;;;5004527;28;1184;-76
2021/09/04 10:29:12;;;;;;;;;;;20.80;72.50;;;;;;4963296;28;1081;-76
2021/09/04 10:31:45;;;;;;;;;;;20.80;72.50;;;;;;4978775;28;1641;-77
2021/09/04 10:34:27;;;;;;;;;;;20.80;72.50;;;;;;5089912;27;1318;-76
2021/09/04 10:37:11;;;;;;;;;;;20.80;72.50;;;;;;5089098;28;1289;-76
2021/09/04 10:39:46;;;;;;;;;;;20.80;72.50;;;;;;5090309;28;1356;-77
2021/09/04 10:42:13;;;;;;;;;;;20.80;72.50;;;;;;5090155;28;1262;-77
2021/09/04 10:44:42;;;;;;;;;;;20.80;72.50;;;;;;5088764;28;1300;-76
2021/09/04 10:47:09;;;;;;;;;;;20.80;72.60;;;;;;5088865;28;1532;-76
2021/09/04 10:49:39;;;;;;;;;;;20.80;72.50;;;;;;5074526;28;1281;-77
2021/09/04 10:52:05;;;;;;;;;;;20.80;72.60;;;;;;5064176;28;1914;-77
2021/09/04 10:54:38;;;;;;;;;;;20.80;72.60;;;;;;5069533;28;1165;-76
2021/09/04 10:57:13;;;;;;;;;;;20.80;72.60;;;;;;5065245;28;1059;-76
2021/09/04 10:59:57;;;;;;;;;;;20.80;72.60;;;;;;5085517;28;1450;-76
2021/09/04 11:02:23;;;;;;;;;;;20.80;72.60;;;;;;5069851;28;1131;-77
2021/09/04 11:04:57;;;;;;;;;;;20.80;72.60;;;;;;5068132;28;1350;-75
2021/09/04 11:07:42;;;;;;;;;;;20.80;72.60;;;;;;5085412;28;1292;-77
2021/09/04 11:10:22;;;;;;;;;;;20.80;72.70;;;;;;5069768;28;1331;-76
2021/09/04 11:13:06;;;;;;;;;;;20.80;72.60;;;;;;5069453;28;1957;-77
2021/09/04 11:15:32;;;;;;;;;;;20.80;72.60;;;;;;5068123;28;1397;-77
2021/09/04 11:17:57;;;;;;;;;;;20.80;72.60;;;;;;5067854;28;1449;-76
2021/09/04 11:20:23;;;;;;;;;;;20.80;72.70;;;;;;5068442;28;1607;-77
2021/09/04 11:22:48;;;;;;;;;;;20.80;72.70;;;;;;5069129;28;1380;-76
2021/09/04 11:25:14;;;;;;;;;;;20.80;72.70;;;;;;5084526;28;1138;-77
2021/09/04 11:27:43;;;;;;;;;;;20.80;72.80;;;;;;5068111;28;1321;-77
2021/09/04 11:30:09;;;;;;;;;;;20.80;72.80;;;;;;5077357;28;1818;-77
2021/09/04 11:32:35;;;;;;;;;;;20.80;72.70;;;;;;5075837;28;1906;-76
2021/09/04 11:35:00;;;;;;;;;;;20.80;72.80;;;;;;5091882;28;1265;-76
2021/09/04 11:37:27;;;;;;;;;;;20.80;72.80;;;;;;5087516;28;1247;-76
2021/09/04 11:40:11;;;;;;;;;;;20.80;72.80;;;;;;5088058;28;1071;-77
2021/09/04 11:42:38;;;;;;;;;;;20.80;72.80;;;;;;5070201;28;1454;-76
2021/09/04 11:45:04;;;;;;;;;;;20.80;72.80;;;;;;5071231;28;2214;-74
2021/09/04 11:47:30;;;;;;;;;;;20.80;72.80;;;;;;5049947;28;1910;-75
2021/09/04 11:49:59;;;;;;;;;;;20.80;72.80;;;;;;5068982;28;1878;-75
2021/09/04 11:52:37;;;;;;;;;;;20.80;72.80;;;;;;5051432;28;1967;-74
2021/09/04 11:55:19;;;;;;;;;;;20.80;72.90;;;;;;5090022;28;1573;-75
2021/09/04 11:57:45;;;;;;;;;;;20.80;72.90;;;;;;5070250;28;1282;-75
2021/09/04 12:00:12;;;;;;;;;;;20.80;72.90;;;;;;5089612;28;1124;-76
2021/09/04 12:02:41;;;;;;;;;;;20.80;72.90;;;;;;5095837;28;1248;-76
2021/09/04 12:05:07;;;;;;;;;;;20.80;72.90;;;;;;5094024;28;1338;-74
2021/09/04 12:07:33;;;;;;;;;;;20.80;72.90;;;;;;5094211;28;1519;-74
2021/09/04 12:09:58;;;;;;;;;;;20.80;72.90;;;;;;5077193;28;1652;-76
2021/09/04 12:12:27;;;;;;;;;;;20.80;72.90;;;;;;5076749;28;2202;-76
2021/09/04 12:14:53;;;;;;;;;;;20.80;72.90;;;;;;5082519;28;1564;-76
2021/09/04 12:17:18;;;;;;;;;;;20.80;72.90;;;;;;5073518;28;1528;-76
2021/09/04 12:19:44;;;;;;;;;;;20.80;72.90;;;;;;5072120;28;1529;-73
2021/09/04 12:22:09;;;;;;;;;;;20.80;72.90;;;;;;5073689;28;1323;-76
2021/09/04 12:24:35;;;;;;;;;;;20.80;72.90;;;;;;5073108;28;1575;-76
2021/09/04 12:27:02;;;;;;;;;;;20.80;72.90;;;;;;5073562;28;1599;-76
2021/09/04 12:29:28;;;;;;;;;;;20.80;73.00;;;;;;5073714;28;1757;-76
2021/09/04 12:31:58;;;;;;;;;;;20.80;72.90;;;;;;5070112;28;1958;-76
2021/09/04 12:34:24;;;;;;;;;;;20.80;72.90;;;;;;5072795;28;1976;-76
2021/09/04 12:36:49;;;;;;;;;;;20.80;72.90;;;;;;5074108;28;1245;-76
2021/09/04 12:39:21;;;;;;;;;;;20.80;72.90;;;;;;5073175;28;1283;-75
2021/09/04 12:41:46;;;;;;;;;;;20.80;72.90;;;;;;5072966;28;1307;-75
2021/09/04 12:44:15;;;;;;;;;;;20.80;73.00;;;;;;5072721;28;1353;-76
2021/09/04 12:46:50;;;;;;;;;;;20.80;73.00;;;;;;5053608;28;1308;-75
2021/09/04 12:49:29;;;;;;;;;;;20.80;73.00;;;;;;5070784;28;1381;-76
2021/09/04 12:51:58;;;;;;;;;;;20.80;73.00;;;;;;5072822;28;1087;-74
2021/09/04 12:54:28;;;;;;;;;;;20.80;73.00;;;;;;5073627;28;1902;-76
2021/09/04 12:57:01;;;;;;;;;;;20.80;73.00;;;;;;5073116;28;1228;-75
2021/09/04 12:59:27;;;;;;;;;;;20.80;73.00;;;;;;5074112;28;1161;-76
2021/09/04 13:01:52;;;;;;;;;;;20.80;73.00;;;;;;5074092;28;1328;-76
2021/09/04 13:04:17;;;;;;;;;;;20.80;73.00;;;;;;5073397;28;1292;-76
2021/09/04 13:06:43;;;;;;;;;;;20.80;73.00;;;;;;5053133;28;1294;-75
2021/09/04 13:09:08;;;;;;;;;;;20.80;73.00;;;;;;5052620;28;1259;-75
2021/09/04 13:11:34;;;;;;;;;;;20.80;73.00;;;;;;5066217;28;1104;-76
2021/09/04 13:13:59;;;;;;;;;;;20.80;73.00;;;;;;5071970;28;1894;-76
2021/09/04 13:16:24;;;;;;;;;;;20.80;73.00;;;;;;5073613;28;1274;-76
2021/09/04 13:18:50;;;;;;;;;;;20.80;73.00;;;;;;5071969;28;1346;-75
2021/09/04 13:21:15;;;;;;;;;;;20.80;73.00;;;;;;5073603;28;1291;-76
2021/09/04 13:23:41;;;;;;;;;;;20.80;73.00;;;;;;5071844;28;1350;-75
2021/09/04 13:26:06;;;;;;;;;;;20.80;73.00;;;;;;5072390;28;1264;-75
2021/09/04 13:28:32;;;;;;;;;;;20.80;73.00;;;;;;5073262;28;1414;-74
2021/09/04 13:30:58;;;;;;;;;;;20.80;73.00;;;;;;5072332;28;1347;-75
2021/09/04 13:33:24;;;;;;;;;;;20.80;73.00;;;;;;5072433;28;1918;-75
2021/09/04 13:35:49;;;;;;;;;;;20.80;73.00;;;;;;5073464;28;1178;-76
2021/09/04 13:38:15;;;;;;;;;;;20.80;73.00;;;;;;5073210;28;1364;-75
2021/09/04 13:40:40;;;;;;;;;;;20.80;73.10;;;;;;5052226;28;1410;-76
2021/09/04 13:43:05;;;;;;;;;;;20.80;73.10;;;;;;5071029;28;1331;-75
2021/09/04 13:45:31;;;;;;;;;;;20.80;73.10;;;;;;5084843;28;1349;-75
2021/09/04 13:47:57;;;;;;;;;;;20.80;73.10;;;;;;5091759;28;1333;-75
2021/09/04 13:50:22;;;;;;;;;;;20.80;73.10;;;;;;5065919;28;1168;-75
2021/09/04 13:52:48;;;;;;;;;;;20.80;73.10;;;;;;5070065;28;1902;-74
2021/09/04 13:55:13;;;;;;;;;;;20.80;73.10;;;;;;5071745;28;1304;-75
2021/09/04 13:57:38;;;;;;;;;;;20.80;73.10;;;;;;5072401;28;1250;-75
2021/09/04 14:00:04;;;;;;;;;;;20.80;73.10;;;;;;5071686;28;1235;-75
2021/09/04 14:02:30;;;;;;;;;;;20.80;73.10;;;;;;5072848;28;1087;-75
2021/09/04 14:04:55;;;;;;;;;;;20.80;73.10;;;;;;5072972;28;1397;-75
2021/09/04 14:07:20;;;;;;;;;;;20.80;73.10;;;;;;5069939;28;2208;-76
2021/09/04 14:09:46;;;;;;;;;;;20.80;73.10;;;;;;5068793;28;1110;-73
2021/09/04 14:12:11;;;;;;;;;;;20.80;73.10;;;;;;5063934;28;1956;-76
2021/09/04 14:14:37;;;;;;;;;;;20.80;72.90;;;;;;5071257;28;1193;-75
2021/09/04 14:17:03;;;;;;;;;;;20.80;72.80;;;;;;5070169;28;1348;-76
2021/09/04 14:19:28;;;;;;;;;;;20.80;72.60;;;;;;5072579;28;1089;-75
2021/09/04 14:21:54;;;;;;;;;;;20.80;72.50;;;;;;5077971;28;1222;-77
2021/09/04 14:24:19;;;;;;;;;;;20.80;72.20;;;;;;5091882;28;1337;-73
2021/09/04 14:26:44;;;;;;;;;;;20.80;71.80;;;;;;5074285;28;1340;-74